Time;durP1;ratioP1;P1;durP2;ratioP2;P2;SDS_P1;SDS_P2;PMS_P1;PMS_P2;Temp;Humidity;BMP_temperature;BMP_pressure;BME280_temperature;BME280_humidity;BME280_pressure;Samples;Min_cycle;Max_cycle;Signal;HPM_P1;HPM_P2
2023/11/26 00:02:07;;;;;;;3.33;2.47;;;3.70;99.90;;;;;;5072658;28;20044;-57
2023/11/26 00:04:33;;;;;;;4.47;2.70;;;3.70;99.90;;;;;;5070367;28;20048;-57
2023/11/26 00:06:59;;;;;;;3.72;2.35;;;3.70;99.90;;;;;;5071919;28;20396;-57
2023/11/26 00:09:25;;;;;;;3.70;2.65;;;3.60;99.90;;;;;;5072454;28;20107;-56
2023/11/26 00:11:51;;;;;;;4.05;2.67;;;3.60;99.90;;;;;;5072300;28;20029;-57
2023/11/26 00:14:17;;;;;;;3.70;2.90;;;3.50;99.90;;;;;;5072862;28;20086;-57
2023/11/26 00:16:44;;;;;;;4.00;2.85;;;3.70;99.90;;;;;;5070073;28;20396;-57
2023/11/26 00:19:29;;;;;;;3.75;2.50;;;3.60;99.90;;;;;;5069906;28;20029;-56
2023/11/26 00:21:55;;;;;;;3.85;2.85;;;3.70;99.90;;;;;;5069630;28;20155;-57
2023/11/26 00:24:21;;;;;;;7.15;3.35;;;3.60;99.90;;;;;;5069922;28;20449;-57
2023/11/26 00:26:47;;;;;;;2.70;2.38;;;3.70;99.90;;;;;;5069930;28;20032;-57
2023/11/26 00:29:13;;;;;;;3.85;2.67;;;3.50;99.90;;;;;;5019847;28;20045;-57
2023/11/26 00:31:39;;;;;;;3.95;3.00;;;3.40;99.90;;;;;;5036345;28;20037;-57
2023/11/26 00:34:05;;;;;;;4.55;3.25;;;3.50;99.90;;;;;;5069585;28;20048;-57
2023/11/26 00:36:30;;;;;;;4.43;2.63;;;3.50;99.90;;;;;;5069634;28;20033;-57
2023/11/26 00:38:56;;;;;;;2.88;2.03;;;3.90;99.90;;;;;;5019557;28;20063;-57
2023/11/26 00:41:23;;;;;;;3.90;2.40;;;3.30;99.90;;;;;;5069547;28;20107;-56
2023/11/26 00:43:49;;;;;;;4.35;2.83;;;3.30;99.90;;;;;;5069655;28;20040;-56
2023/11/26 00:46:15;;;;;;;2.63;2.08;;;3.30;99.90;;;;;;5069298;28;20052;-57
2023/11/26 00:48:41;;;;;;;4.15;2.95;;;3.30;99.90;;;;;;5069580;28;20085;-57
2023/11/26 00:51:07;;;;;;;5.57;2.58;;;3.20;99.90;;;;;;5071155;28;20519;-57
2023/11/26 00:53:33;;;;;;;2.90;2.40;;;3.30;99.90;;;;;;5071944;28;20100;-57
2023/11/26 00:56:00;;;;;;;3.72;2.83;;;3.20;99.90;;;;;;5071922;28;20174;-56
2023/11/26 00:58:26;;;;;;;4.45;2.78;;;3.20;99.90;;;;;;5070672;28;20395;-56
2023/11/26 01:00:52;;;;;;;3.40;2.53;;;3.10;99.90;;;;;;5072200;28;20378;-56
2023/11/26 01:03:18;;;;;;;3.38;2.25;;;2.90;99.90;;;;;;5072259;28;20036;-56
2023/11/26 01:05:45;;;;;;;3.95;2.63;;;2.80;99.90;;;;;;5069592;28;20040;-56
2023/11/26 01:08:11;;;;;;;2.88;2.05;;;2.90;99.90;;;;;;5071717;28;20392;-56
2023/11/26 01:10:37;;;;;;;3.67;2.20;;;2.90;99.90;;;;;;5074903;28;20448;-56
2023/11/26 01:13:04;;;;;;;3.58;2.83;;;2.90;99.90;;;;;;5075844;28;20072;-57
2023/11/26 01:15:32;;;;;;;4.55;3.45;;;2.90;99.90;;;;;;5075851;28;20487;-56
2023/11/26 01:17:58;;;;;;;6.15;3.03;;;2.90;99.90;;;;;;5075777;28;20033;-56
2023/11/26 01:20:23;;;;;;;5.38;2.83;;;2.80;99.90;;;;;;5075843;28;20039;-57
2023/11/26 01:22:50;;;;;;;4.68;2.90;;;;;;;;;;5076083;28;20455;-56
2023/11/26 01:25:16;;;;;;;3.72;2.67;;;;;;;;;;5075449;28;20077;-57
2023/11/26 01:27:42;;;;;;;4.15;3.13;;;;;;;;;;5075779;28;20036;-57
2023/11/26 01:30:09;;;;;;;3.90;3.05;;;2.70;99.90;;;;;;5073387;28;20044;-56
2023/11/26 01:32:35;;;;;;;5.13;3.08;;;2.70;99.90;;;;;;5073400;28;20067;-56
2023/11/26 01:35:02;;;;;;;3.85;3.13;;;2.70;99.90;;;;;;5075432;28;20395;-56
2023/11/26 01:37:28;;;;;;;6.38;3.33;;;2.70;99.90;;;;;;5075577;28;20048;-56
2023/11/26 01:39:55;;;;;;;4.82;3.22;;;2.60;99.90;;;;;;5075571;28;20115;-57
2023/11/26 01:42:20;;;;;;;5.53;3.10;;;2.70;99.90;;;;;;5075711;28;20094;-57
2023/11/26 01:44:46;;;;;;;4.03;3.22;;;2.70;99.90;;;;;;5075214;28;20290;-57
2023/11/26 01:47:13;;;;;;;4.25;3.35;;;2.60;99.90;;;;;;5075015;28;20033;-57
2023/11/26 01:49:39;;;;;;;4.45;3.13;;;2.70;99.90;;;;;;5074995;28;20040;-57
2023/11/26 01:52:10;;;;;;;3.90;3.28;;;2.60;99.90;;;;;;5075304;28;20033;-57
2023/11/26 01:54:41;;;;;;;3.50;2.00;;;2.50;99.90;;;;;;5071047;28;20044;-56
2023/11/26 01:57:08;;;;;;;4.13;3.08;;;2.40;99.90;;;;;;5055022;28;20029;-57
2023/11/26 01:59:34;;;;;;;4.45;3.00;;;2.30;99.90;;;;;;5054935;28;20047;-57
2023/11/26 02:02:00;;;;;;;6.10;4.38;;;2.40;99.90;;;;;;5055081;28;20504;-56
2023/11/26 02:04:26;;;;;;;5.30;4.05;;;2.40;99.90;;;;;;5036090;28;20150;-57
2023/11/26 02:06:55;;;;;;;3.83;2.78;;;2.40;99.90;;;;;;5054987;28;20090;-57
2023/11/26 02:09:22;;;;;;;7.47;3.53;;;2.40;99.90;;;;;;5052583;28;20033;-56
2023/11/26 02:11:48;;;;;;;5.35;3.88;;;2.50;99.90;;;;;;5054849;28;20044;-57
2023/11/26 02:14:15;;;;;;;5.10;3.30;;;2.50;99.90;;;;;;5054635;28;20506;-56
2023/11/26 02:16:49;;;;;;;4.70;3.25;;;2.40;99.90;;;;;;5054919;28;20033;-58
2023/11/26 02:19:31;;;;;;;5.20;3.92;;;2.40;99.90;;;;;;5054789;28;20029;-57
2023/11/26 02:21:57;;;;;;;6.18;3.90;;;2.50;99.90;;;;;;5034427;28;20037;-56
2023/11/26 02:24:27;;;;;;;5.03;3.15;;;;;;;;;;5053805;28;20485;-57
2023/11/26 02:26:54;;;;;;;5.68;4.28;;;2.60;99.90;;;;;;5071674;28;20103;-56
2023/11/26 02:29:20;;;;;;;3.35;2.90;;;2.60;99.90;;;;;;5074649;28;20109;-56
2023/11/26 02:31:46;;;;;;;5.25;3.70;;;2.30;99.90;;;;;;5074773;28;20391;-57
2023/11/26 02:34:11;;;;;;;5.70;3.58;;;2.30;99.90;;;;;;5074404;28;20111;-57
2023/11/26 02:36:37;;;;;;;5.00;3.30;;;2.30;99.90;;;;;;5074654;28;20062;-57
2023/11/26 02:39:04;;;;;;;5.53;3.75;;;2.30;99.90;;;;;;5074115;28;20369;-56
2023/11/26 02:41:31;;;;;;;4.90;3.53;;;2.30;99.90;;;;;;5055484;28;20048;-56
2023/11/26 02:43:57;;;;;;;4.97;3.30;;;2.40;99.90;;;;;;5074356;28;20037;-56
2023/11/26 02:46:23;;;;;;;6.25;3.72;;;;;;;;;;5073996;28;20472;-56
2023/11/26 02:48:49;;;;;;;4.13;3.08;;;;;;;;;;5074277;28;20031;-57
2023/11/26 02:51:15;;;;;;;5.30;3.22;;;2.10;99.90;;;;;;5073879;28;20049;-57
2023/11/26 02:53:40;;;;;;;3.65;2.65;;;2.10;99.90;;;;;;5074054;28;20353;-56
2023/11/26 02:56:07;;;;;;;6.00;3.30;;;;;;;;;;5074135;28;20476;-56
2023/11/26 02:58:32;;;;;;;3.25;2.50;;;2.10;99.90;;;;;;5074141;28;20028;-56
2023/11/26 03:00:58;;;;;;;5.03;3.67;;;2.00;99.90;;;;;;5073853;28;20093;-56
2023/11/26 03:03:24;;;;;;;5.55;3.17;;;;;;;;;;5073707;28;20040;-56
2023/11/26 03:05:50;;;;;;;6.40;3.97;;;2.10;99.90;;;;;;5071535;28;20049;-57
2023/11/26 03:08:21;;;;;;;7.57;4.10;;;1.90;99.90;;;;;;5073822;28;20039;-56
2023/11/26 03:13:33;;;;;;;4.25;3.42;;;;;;;;;;5073515;28;20035;-56
2023/11/26 03:15:59;;;;;;;3.75;2.85;;;1.90;99.90;;;;;;5073981;28;20029;-56
2023/11/26 03:18:25;;;;;;;5.10;3.17;;;1.90;99.90;;;;;;5073368;28;20036;-56
2023/11/26 03:20:52;;;;;;;4.95;3.20;;;2.10;99.90;;;;;;5073475;28;20040;-56
2023/11/26 03:23:19;;;;;;;5.07;3.22;;;2.00;99.90;;;;;;5073459;28;20123;-56
2023/11/26 03:25:45;;;;;;;5.55;3.05;;;2.10;99.90;;;;;;5073646;28;20047;-57
2023/11/26 03:28:13;;;;;;;6.32;3.50;;;;;;;;;;5073603;28;20028;-56
2023/11/26 03:30:39;;;;;;;4.13;2.63;;;;;;;;;;5073333;28;20036;-56
2023/11/26 03:33:07;;;;;;;3.58;2.88;;;;;;;;;;5072959;28;20029;-56
2023/11/26 03:35:33;;;;;;;4.95;3.10;;;;;;;;;;5073332;28;20388;-56
2023/11/26 03:37:59;;;;;;;4.80;3.25;;;;;;;;;;5070995;28;20366;-56
2023/11/26 03:40:25;;;;;;;4.22;2.85;;;;;;;;;;5072909;28;20063;-57
2023/11/26 03:42:51;;;;;;;4.13;2.70;;;;;;;;;;5072941;28;20032;-56
2023/11/26 03:45:18;;;;;;;5.97;3.15;;;;;;;;;;5073165;28;20361;-57
2023/11/26 03:47:45;;;;;;;4.35;3.05;;;;;;;;;;5072913;28;20024;-56
2023/11/26 03:50:12;;;;;;;4.28;2.42;;;;;;;;;;5072656;28;20052;-56
2023/11/26 03:52:39;;;;;;;6.47;3.40;;;;;;;;;;5073229;28;20036;-56
2023/11/26 03:55:06;;;;;;;5.45;2.63;;;;;;;;;;5073112;28;20472;-57
2023/11/26 03:57:32;;;;;;;6.60;3.20;;;;;;;;;;5072717;28;20031;-56
2023/11/26 04:00:00;;;;;;;5.43;2.55;;;1.90;99.90;;;;;;5072883;28;20051;-56
2023/11/26 04:02:26;;;;;;;5.38;2.90;;;1.80;99.90;;;;;;5072895;28;20193;-56
2023/11/26 04:04:52;;;;;;;5.80;2.42;;;1.80;99.90;;;;;;5072419;28;20048;-56
2023/11/26 04:07:18;;;;;;;4.65;2.72;;;1.80;99.90;;;;;;5072759;28;20109;-56
2023/11/26 04:09:47;;;;;;;7.35;3.22;;;1.80;99.90;;;;;;5072406;28;20036;-56
2023/11/26 04:12:13;;;;;;;4.57;2.25;;;1.90;99.90;;;;;;5072755;28;20029;-56
2023/11/26 04:14:51;;;;;;;5.35;3.10;;;;;;;;;;5072501;28;20135;-56
2023/11/26 04:17:17;;;;;;;6.38;3.05;;;;;;;;;;5072564;28;20024;-56
2023/11/26 04:19:43;;;;;;;6.82;2.80;;;;;;;;;;5070040;28;20450;-57
2023/11/26 04:22:09;;;;;;;6.72;3.65;;;;;;;;;;5072523;28;20041;-56
2023/11/26 04:24:35;;;;;;;4.72;3.10;;;2.00;99.90;;;;;;5072660;28;20099;-57
2023/11/26 04:27:01;;;;;;;6.55;3.20;;;2.00;99.90;;;;;;5072209;28;20767;-57
2023/11/26 04:29:26;;;;;;;4.45;3.25;;;2.00;99.90;;;;;;5072669;28;20040;-56
2023/11/26 04:31:52;;;;;;;5.32;3.20;;;2.10;99.90;;;;;;5072538;28;20044;-56
2023/11/26 04:34:18;;;;;;;5.82;3.22;;;2.10;99.90;;;;;;5072411;28;20123;-56
2023/11/26 04:36:44;;;;;;;8.30;3.97;;;2.10;99.90;;;;;;5071923;28;20492;-56
2023/11/26 04:39:11;;;;;;;4.55;2.67;;;2.10;99.90;;;;;;5072025;28;20034;-56
2023/11/26 04:41:37;;;;;;;7.45;3.45;;;2.10;99.90;;;;;;5072134;28;20039;-57
2023/11/26 04:44:03;;;;;;;7.63;3.20;;;2.10;99.90;;;;;;5071426;28;20028;-57
2023/11/26 04:46:29;;;;;;;2.15;1.77;;;2.10;99.90;;;;;;5072018;28;20081;-56
2023/11/26 04:48:55;;;;;;;3.22;2.30;;;2.00;99.90;;;;;;5072333;28;20029;-56
2023/11/26 04:51:21;;;;;;;4.70;3.13;;;2.00;99.90;;;;;;5071754;28;20052;-56
2023/11/26 04:53:47;;;;;;;6.35;3.53;;;2.00;99.90;;;;;;5072279;28;20581;-56
2023/11/26 04:56:13;;;;;;;4.93;3.20;;;2.10;99.90;;;;;;5071919;28;20107;-57
2023/11/26 04:58:39;;;;;;;4.38;3.00;;;2.10;99.90;;;;;;5071757;28;20033;-56
2023/11/26 05:01:05;;;;;;;6.38;3.40;;;2.10;99.90;;;;;;5070756;28;20028;-57
2023/11/26 05:03:30;;;;;;;6.20;3.30;;;2.10;99.90;;;;;;5051624;28;20048;-56
2023/11/26 05:05:56;;;;;;;4.63;3.08;;;2.20;99.90;;;;;;5051688;28;20037;-56
2023/11/26 05:08:22;;;;;;;6.47;4.07;;;2.10;99.90;;;;;;5051888;28;20537;-56
2023/11/26 05:10:48;;;;;;;4.28;2.28;;;2.00;99.90;;;;;;5052038;28;20040;-57
2023/11/26 05:13:14;;;;;;;4.00;3.15;;;2.00;99.90;;;;;;5051706;28;20036;-57
2023/11/26 05:15:39;;;;;;;4.85;3.17;;;2.10;99.90;;;;;;5051738;28;20033;-57
2023/11/26 05:18:05;;;;;;;3.15;2.15;;;2.10;99.90;;;;;;5032845;28;20044;-56
2023/11/26 05:20:31;;;;;;;7.13;3.42;;;2.10;99.90;;;;;;5051807;28;20060;-56
2023/11/26 05:22:57;;;;;;;5.05;3.50;;;2.10;99.90;;;;;;5051353;28;20029;-56
2023/11/26 05:25:24;;;;;;;3.65;2.28;;;2.10;99.90;;;;;;5051920;28;20029;-56
2023/11/26 05:27:50;;;;;;;6.38;3.45;;;2.20;99.90;;;;;;5051623;28;20044;-57
2023/11/26 05:30:16;;;;;;;4.10;2.83;;;2.30;99.90;;;;;;5051467;28;20432;-56
2023/11/26 05:32:41;;;;;;;5.28;2.88;;;2.30;99.90;;;;;;5051337;28;20455;-57
2023/11/26 05:35:13;;;;;;;7.30;3.53;;;2.20;99.90;;;;;;5051370;28;20033;-56
2023/11/26 05:37:40;;;;;;;9.73;5.10;;;2.30;99.90;;;;;;5051586;28;20029;-57
2023/11/26 05:40:08;;;;;;;5.40;2.17;;;2.50;99.90;;;;;;5051186;28;20041;-56
2023/11/26 05:42:33;;;;;;;5.65;3.33;;;2.40;99.90;;;;;;5051224;28;20470;-56
2023/11/26 05:44:59;;;;;;;5.50;3.47;;;2.60;99.90;;;;;;5055563;28;20032;-56
2023/11/26 05:47:25;;;;;;;7.15;3.10;;;2.60;99.90;;;;;;5071523;28;20033;-56
2023/11/26 05:49:52;;;;;;;6.18;3.67;;;;;;;;;;5071265;28;20090;-57
2023/11/26 05:52:19;;;;;;;5.50;3.95;;;;;;;;;;5071341;28;20040;-56
2023/11/26 05:54:45;;;;;;;8.05;4.70;;;;;;;;;;5071356;28;20388;-56
2023/11/26 05:57:12;;;;;;;5.32;2.75;;;3.00;99.90;;;;;;5071443;28;20167;-56
2023/11/26 05:59:37;;;;;;;3.72;2.78;;;3.00;99.90;;;;;;5055483;28;20040;-56
2023/11/26 06:02:04;;;;;;;4.80;3.42;;;3.00;99.90;;;;;;5054736;28;20041;-56
2023/11/26 06:04:29;;;;;;;5.45;3.30;;;3.30;99.90;;;;;;5055127;28;20116;-56
2023/11/26 06:06:55;;;;;;;4.28;2.53;;;3.20;99.90;;;;;;5055066;28;20163;-56
2023/11/26 06:09:21;;;;;;;4.75;2.95;;;3.10;99.90;;;;;;5036133;28;20103;-56
2023/11/26 06:11:47;;;;;;;4.68;3.20;;;3.00;99.90;;;;;;5035822;28;20045;-56
2023/11/26 06:14:13;;;;;;;6.10;3.35;;;3.00;99.90;;;;;;5054537;28;20033;-56
2023/11/26 06:16:41;;;;;;;6.13;3.30;;;3.10;99.90;;;;;;5054715;28;20041;-56
2023/11/26 06:19:07;;;;;;;5.05;3.17;;;3.10;99.90;;;;;;5052376;28;20041;-56
2023/11/26 06:21:33;;;;;;;6.53;3.30;;;3.20;99.90;;;;;;5054459;28;20124;-56
2023/11/26 06:23:59;;;;;;;5.38;3.42;;;3.20;99.90;;;;;;5066106;28;20044;-56
2023/11/26 06:26:25;;;;;;;3.90;2.85;;;3.20;99.90;;;;;;5074802;28;20104;-56
2023/11/26 06:28:50;;;;;;;5.63;3.40;;;3.30;99.90;;;;;;5074413;28;20101;-56
2023/11/26 06:31:24;;;;;;;4.60;3.15;;;3.40;99.90;;;;;;5074186;28;20059;-56
2023/11/26 06:33:51;;;;;;;4.00;3.00;;;3.30;99.90;;;;;;5074237;28;20545;-56
2023/11/26 06:36:24;;;;;;;4.05;2.50;;;3.40;99.90;;;;;;5074356;28;20083;-56
2023/11/26 06:38:51;;;;;;;7.25;4.05;;;3.30;99.90;;;;;;5074540;28;20032;-56
2023/11/26 06:41:40;;;;;;;5.25;3.53;;;3.30;99.90;;;;;;5023803;28;20099;-56
2023/11/26 06:44:06;;;;;;;4.93;4.13;;;3.40;99.90;;;;;;5051643;28;20087;-57
2023/11/26 06:46:32;;;;;;;4.70;3.58;;;3.30;99.90;;;;;;5042362;28;20037;-57
2023/11/26 06:48:58;;;;;;;4.20;3.40;;;3.40;99.90;;;;;;5032667;28;20041;-57
2023/11/26 06:51:24;;;;;;;5.60;3.72;;;3.40;99.90;;;;;;4999173;28;20484;-57
2023/11/26 06:53:51;;;;;;;7.03;3.85;;;3.50;99.90;;;;;;5041581;28;20026;-56
2023/11/26 06:56:17;;;;;;;5.70;3.60;;;3.80;99.90;;;;;;5039745;28;20103;-57
2023/11/26 06:58:44;;;;;;;4.10;3.10;;;3.60;99.90;;;;;;5041397;28;20033;-57
2023/11/26 07:01:13;;;;;;;6.88;4.38;;;3.60;99.90;;;;;;5024612;28;20576;-56
2023/11/26 07:03:40;;;;;;;5.55;4.25;;;3.60;99.90;;;;;;5044481;28;20119;-57
2023/11/26 07:06:07;;;;;;;5.53;4.25;;;3.60;99.90;;;;;;5023847;28;20112;-57
2023/11/26 07:08:36;;;;;;;4.20;3.22;;;3.70;99.90;;;;;;5039328;28;20547;-57
2023/11/26 07:11:02;;;;;;;4.80;4.07;;;3.80;99.90;;;;;;5039011;28;20603;-57
2023/11/26 07:13:28;;;;;;;5.05;3.95;;;3.60;99.90;;;;;;5056982;28;20033;-56
2023/11/26 07:15:54;;;;;;;5.30;2.97;;;3.60;99.90;;;;;;5064145;28;20036;-64
2023/11/26 07:18:20;;;;;;;7.07;3.85;;;3.60;99.90;;;;;;5062037;28;20036;-57
2023/11/26 07:20:46;;;;;;;5.55;3.47;;;3.60;99.90;;;;;;5060570;28;20028;-56
2023/11/26 07:23:13;;;;;;;7.53;4.00;;;3.70;99.90;;;;;;5063606;28;20480;-57
2023/11/26 07:25:39;;;;;;;15.95;12.07;;;3.70;99.90;;;;;;5063760;28;20490;-56
2023/11/26 07:28:11;;;;;;;7.72;6.38;;;3.80;99.90;;;;;;5059022;28;20039;-58
2023/11/26 07:30:37;;;;;;;8.25;7.15;;;3.80;99.90;;;;;;5069596;28;20113;-59
2023/11/26 07:33:03;;;;;;;8.75;7.38;;;3.80;99.90;;;;;;5073069;28;20104;-57
2023/11/26 07:35:30;;;;;;;10.50;7.50;;;3.70;99.90;;;;;;5073008;28;20086;-56
2023/11/26 07:37:56;;;;;;;8.15;6.00;;;;;;;;;;5073059;28;20033;-56
2023/11/26 07:40:22;;;;;;;6.25;5.50;;;;;;;;;;5070780;28;20480;-56
2023/11/26 07:42:50;;;;;;;6.43;5.20;;;3.70;99.90;;;;;;5073037;28;20064;-56
2023/11/26 07:45:16;;;;;;;5.15;3.88;;;3.80;99.90;;;;;;5058283;28;20091;-56
2023/11/26 07:47:42;;;;;;;5.32;4.43;;;3.60;99.90;;;;;;5050674;28;20037;-56
2023/11/26 07:50:08;;;;;;;6.18;4.78;;;3.60;99.90;;;;;;5052622;28;20052;-58
2023/11/26 07:52:34;;;;;;;8.88;5.15;;;3.50;99.90;;;;;;5053049;28;20036;-56
2023/11/26 07:55:07;;;;;;;4.93;4.00;;;3.50;99.90;;;;;;5053047;28;20082;-56
2023/11/26 07:57:34;;;;;;;5.28;4.10;;;3.40;99.90;;;;;;5052713;28;20384;-56
2023/11/26 08:00:01;;;;;;;6.22;4.60;;;3.50;99.90;;;;;;5052606;28;20040;-56
2023/11/26 08:02:30;;;;;;;8.30;5.10;;;3.50;99.90;;;;;;5052569;28;20392;-56
2023/11/26 08:04:57;;;;;;;3.35;2.95;;;3.60;99.90;;;;;;5053027;28;20103;-56
2023/11/26 08:07:24;;;;;;;2.75;2.47;;;3.40;99.90;;;;;;5052447;28;20044;-56
2023/11/26 08:09:51;;;;;;;6.13;4.20;;;3.30;99.90;;;;;;5052537;28;20111;-56
2023/11/26 08:12:20;;;;;;;6.25;4.95;;;3.30;99.90;;;;;;5068121;28;20032;-56
2023/11/26 08:14:47;;;;;;;5.60;3.95;;;3.30;99.90;;;;;;5072491;28;20043;-56
2023/11/26 08:17:12;;;;;;;5.53;4.53;;;3.30;99.90;;;;;;5072266;28;20551;-56
2023/11/26 08:19:40;;;;;;;4.15;3.35;;;3.30;99.90;;;;;;5071497;28;20120;-56
2023/11/26 08:22:06;;;;;;;4.82;4.20;;;3.20;99.90;;;;;;5072476;28;20375;-57
2023/11/26 08:24:32;;;;;;;6.15;4.38;;;3.40;99.90;;;;;;5071451;28;20071;-56
2023/11/26 08:27:01;;;;;;;6.10;4.60;;;3.40;99.90;;;;;;5070109;28;20044;-57
2023/11/26 08:29:27;;;;;;;6.82;4.88;;;3.30;99.90;;;;;;5072163;28;20130;-56
2023/11/26 08:31:54;;;;;;;6.18;4.50;;;3.40;99.90;;;;;;5072480;28;20020;-56
2023/11/26 08:34:22;;;;;;;7.45;4.55;;;3.30;99.90;;;;;;5072089;28;20131;-56
2023/11/26 08:36:50;;;;;;;5.82;5.05;;;3.50;99.90;;;;;;5059409;28;20071;-57
2023/11/26 08:39:26;;;;;;;5.57;4.05;;;3.50;99.90;;;;;;5052248;28;20029;-57
2023/11/26 08:41:52;;;;;;;5.25;3.85;;;3.60;99.90;;;;;;5051827;28;20040;-57
2023/11/26 08:44:18;;;;;;;4.70;3.67;;;3.70;99.90;;;;;;5051947;28;20108;-57
2023/11/26 08:46:46;;;;;;;5.80;4.38;;;3.60;99.90;;;;;;5052181;28;20064;-57
2023/11/26 08:49:18;;;;;;;5.78;3.83;;;3.70;99.90;;;;;;5051836;28;20036;-57
2023/11/26 08:51:44;;;;;;;4.18;3.28;;;3.60;99.90;;;;;;5054407;28;20527;-57
2023/11/26 08:54:10;;;;;;;4.32;3.47;;;3.60;99.90;;;;;;5053078;28;20107;-57
2023/11/26 08:56:35;;;;;;;3.85;2.53;;;3.70;99.90;;;;;;5071887;28;20480;-57
2023/11/26 08:59:03;;;;;;;7.68;5.63;;;3.80;99.90;;;;;;5071872;28;20036;-57
2023/11/26 09:01:30;;;;;;;6.05;3.38;;;4.00;99.90;;;;;;5071499;28;20032;-57
2023/11/26 09:03:56;;;;;;;6.20;4.20;;;4.10;99.90;;;;;;5071776;28;20028;-56
2023/11/26 09:06:22;;;;;;;6.00;3.83;;;4.30;99.90;;;;;;5071248;28;20020;-56
2023/11/26 09:08:50;;;;;;;3.58;3.20;;;4.30;99.90;;;;;;5072071;28;20495;-57
2023/11/26 09:11:17;;;;;;;3.20;2.58;;;4.30;99.90;;;;;;5071828;28;20016;-56
2023/11/26 09:13:44;;;;;;;5.78;3.60;;;4.30;99.90;;;;;;5071573;28;20499;-56
2023/11/26 09:16:10;;;;;;;4.43;2.95;;;4.30;99.90;;;;;;5071703;28;20021;-56
2023/11/26 09:18:37;;;;;;;5.72;4.30;;;4.20;99.90;;;;;;5071742;28;20039;-56
2023/11/26 09:21:05;;;;;;;4.85;3.40;;;4.40;99.90;;;;;;5071672;28;20140;-56
2023/11/26 09:23:36;;;;;;;3.35;2.75;;;;;;;;;;5071436;28;20078;-57
2023/11/26 09:26:02;;;;;;;4.63;2.65;;;;;;;;;;5071731;28;20041;-56
2023/11/26 09:28:30;;;;;;;5.07;3.33;;;;;;;;;;5067083;28;20036;-56
2023/11/26 09:30:56;;;;;;;5.03;3.40;;;;;;;;;;5061469;28;20029;-56
2023/11/26 09:33:22;;;;;;;9.70;6.10;;;4.70;99.90;;;;;;5062609;28;20025;-58
2023/11/26 09:35:48;;;;;;;7.63;5.82;;;4.90;99.90;;;;;;5055375;28;20028;-56
2023/11/26 09:38:14;;;;;;;5.90;5.28;;;4.80;99.90;;;;;;5055369;28;20040;-56
2023/11/26 09:40:43;;;;;;;34.53;23.70;;;4.90;99.90;;;;;;5055766;28;20020;-56
2023/11/26 09:43:09;;;;;;;9.63;7.35;;;4.80;99.90;;;;;;5063687;28;20089;-56
2023/11/26 09:45:37;;;;;;;7.22;5.65;;;5.00;99.90;;;;;;5070455;28;20059;-57
2023/11/26 09:48:05;;;;;;;7.75;6.25;;;4.90;99.90;;;;;;5070100;28;20031;-56
2023/11/26 09:50:31;;;;;;;31.70;17.38;;;4.80;99.90;;;;;;5072815;28;20052;-56
2023/11/26 09:52:59;;;;;;;11.27;7.35;;;5.00;99.90;;;;;;5070337;28;20029;-54
2023/11/26 09:55:25;;;;;;;6.43;4.65;;;4.90;99.90;;;;;;5072552;28;20032;-55
2023/11/26 09:57:51;;;;;;;77.13;56.05;;;4.90;99.90;;;;;;5079968;28;20020;-54
2023/11/26 10:00:17;;;;;;;8.93;5.95;;;5.10;99.90;;;;;;5057416;28;20040;-54
2023/11/26 10:02:43;;;;;;;12.85;10.32;;;5.10;99.90;;;;;;5075739;28;20125;-58
2023/11/26 10:05:24;;;;;;;9.35;5.97;;;5.10;99.90;;;;;;5075909;28;20192;-56
2023/11/26 10:07:52;;;;;;;13.82;9.00;;;5.00;99.90;;;;;;5074151;28;20103;-57
2023/11/26 10:10:18;;;;;;;7.28;5.13;;;;;;;;;;5072303;28;20393;-58
2023/11/26 10:12:53;;;;;;;10.00;7.07;;;5.00;99.90;;;;;;5071160;28;20039;-58
2023/11/26 10:15:21;;;;;;;7.95;6.30;;;5.10;99.90;;;;;;5076240;28;20036;-58
2023/11/26 10:18:09;;;;;;;5.95;4.22;;;5.20;99.90;;;;;;5062278;28;20029;-58
2023/11/26 10:20:40;;;;;;;8.07;5.40;;;5.10;99.90;;;;;;5029016;28;20053;-57
2023/11/26 10:23:10;;;;;;;6.05;4.13;;;5.10;99.90;;;;;;5079287;28;20563;-59
2023/11/26 10:25:48;;;;;;;3.80;3.40;;;5.20;99.90;;;;;;5072749;28;20021;-59
2023/11/26 10:28:15;;;;;;;6.22;4.30;;;5.20;99.90;;;;;;5076529;28;20059;-58
2023/11/26 10:30:42;;;;;;;6.35;4.32;;;5.20;99.90;;;;;;5071987;28;20429;-59
2023/11/26 10:33:11;;;;;;;5.07;3.42;;;5.40;99.90;;;;;;5048034;28;20053;-58
2023/11/26 10:35:54;;;;;;;5.07;3.78;;;5.40;99.90;;;;;;5047540;28;20515;-56
2023/11/26 10:38:24;;;;;;;4.57;3.58;;;5.50;99.90;;;;;;5048288;28;20090;-57
2023/11/26 10:40:50;;;;;;;4.80;3.40;;;5.60;99.90;;;;;;5050709;28;20028;-57
2023/11/26 10:43:20;;;;;;;13.73;7.45;;;5.70;99.90;;;;;;5044198;28;20055;-57
2023/11/26 10:45:47;;;;;;;6.95;4.70;;;;;;;;;;5052290;28;20063;-57
2023/11/26 10:48:15;;;;;;;5.47;4.22;;;;;;;;;;5047939;28;20080;-57
2023/11/26 10:50:42;;;;;;;7.05;4.80;;;;;;;;;;5048310;28;20088;-57
2023/11/26 10:53:34;;;;;;;18.20;8.32;;;;;;;;;;5053646;28;20409;-56
2023/11/26 10:56:03;;;;;;;14.25;9.13;;;;;;;;;;5031654;28;20045;-56
2023/11/26 10:58:37;;;;;;;3.92;2.97;;;5.80;99.90;;;;;;5046813;28;20523;-56
2023/11/26 11:01:03;;;;;;;15.10;9.80;;;5.70;99.90;;;;;;5047342;28;20040;-56
2023/11/26 11:03:29;;;;;;;9.48;6.55;;;5.50;99.90;;;;;;5050363;28;20063;-56
2023/11/26 11:05:58;;;;;;;10.80;7.18;;;5.50;99.90;;;;;;5068510;28;20484;-57
2023/11/26 11:08:25;;;;;;;4.90;3.83;;;;;;;;;;5052416;28;20052;-56
2023/11/26 11:11:02;;;;;;;6.95;4.03;;;;;;;;;;5051266;28;20684;-57
2023/11/26 11:13:28;;;;;;;5.15;3.85;;;;;;;;;;5046628;28;20045;-58
2023/11/26 11:15:54;;;;;;;10.88;7.50;;;;;;;;;;5053335;28;20107;-58
2023/11/26 11:18:41;;;;;;;11.23;7.43;;;;;;;;;;5044263;28;20975;-56
2023/11/26 11:21:12;;;;;;;8.77;5.30;;;;;;;;;;5047941;28;20025;-56
2023/11/26 11:23:42;;;;;;;9.10;4.07;;;;;;;;;;5024849;28;20061;-56
2023/11/26 11:26:11;;;;;;;5.65;3.83;;;;;;;;;;5036418;28;20202;-58
2023/11/26 11:28:48;;;;;;;8.93;5.15;;;6.20;99.90;;;;;;5027283;28;20033;-57
2023/11/26 11:31:15;;;;;;;6.68;5.15;;;6.10;99.90;;;;;;4999538;28;20041;-57
2023/11/26 11:33:56;;;;;;;6.00;4.35;;;6.20;99.90;;;;;;5011644;28;20545;-57
2023/11/26 11:36:52;;;;;;;5.72;4.53;;;6.30;99.90;;;;;;5032153;28;20034;-57
2023/11/26 11:39:26;;;;;;;6.22;4.40;;;6.40;99.90;;;;;;4995556;28;20159;-58
2023/11/26 11:41:57;;;;;;;4.47;4.05;;;7.00;99.90;;;;;;5050563;28;20036;-57
2023/11/26 11:44:29;;;;;;;5.43;4.88;;;;;;;;;;5048776;28;20135;-57
2023/11/26 11:46:55;;;;;;;;;;;8.30;99.90;;;;;;5045175;28;20547;-57
2023/11/26 11:49:21;;;;;;;4.53;2.70;;;7.90;99.90;;;;;;5052318;28;19958;-58
2023/11/26 11:51:47;;;;;;;3.72;3.13;;;7.10;99.90;;;;;;5045689;28;20104;-57
2023/11/26 11:54:23;;;;;;;3.22;2.65;;;6.70;99.90;;;;;;5057900;28;20040;-57
2023/11/26 11:56:58;;;;;;;2.40;2.20;;;6.90;99.90;;;;;;5044222;28;20036;-57
2023/11/26 11:59:25;;;;;;;1.67;1.55;;;6.70;99.90;;;;;;5044069;28;20036;-58
2023/11/26 12:01:52;;;;;;;12.52;5.95;;;6.80;99.90;;;;;;5069141;28;20059;-57
2023/11/26 12:04:18;;;;;;;8.02;4.72;;;7.20;99.90;;;;;;5070256;28;20037;-57
2023/11/26 12:06:50;;;;;;;36.75;13.30;;;7.40;99.90;;;;;;5074851;28;20108;-58
2023/11/26 12:09:16;;;;;;;36.75;14.40;;;7.50;99.90;;;;;;5071280;28;20089;-58
2023/11/26 12:11:49;;;;;;;33.92;13.55;;;8.10;99.90;;;;;;5071880;28;20103;-59
2023/11/26 12:14:25;;;;;;;53.00;17.30;;;7.90;99.90;;;;;;5070561;28;20494;-58
2023/11/26 12:16:51;;;;;;;85.57;27.10;;;7.40;99.90;;;;;;5072547;28;20718;-57
2023/11/26 12:19:18;;;;;;;21.05;9.27;;;;;;;;;;5066166;28;20032;-57
2023/11/26 12:21:44;;;;;;;86.07;29.40;;;7.30;99.90;;;;;;5056483;28;20092;-58
2023/11/26 12:24:21;;;;;;;89.53;26.73;;;7.10;99.90;;;;;;5067622;28;20085;-57
2023/11/26 12:26:47;;;;;;;35.15;12.20;;;;;;;;;;5072247;28;20113;-57
2023/11/26 12:29:25;;;;;;;13.93;5.53;;;7.40;99.90;;;;;;5068684;28;20032;-57
2023/11/26 12:32:00;;;;;;;37.80;10.95;;;7.80;99.60;;;;;;5045279;28;20041;-57
2023/11/26 12:34:26;;;;;;;33.33;9.60;;;8.40;98.40;;;;;;5067682;28;20059;-57
2023/11/26 12:36:52;;;;;;;43.00;12.50;;;8.00;98.30;;;;;;5070084;28;20048;-58
2023/11/26 12:39:19;;;;;;;5.97;3.30;;;8.10;98.50;;;;;;5063045;28;20387;-58
2023/11/26 12:41:46;;;;;;;38.40;11.55;;;7.80;98.10;;;;;;5070555;28;20037;-58
2023/11/26 12:44:13;;;;;;;10.73;4.82;;;7.60;98.60;;;;;;5073350;28;20529;-58
2023/11/26 12:46:39;;;;;;;31.05;10.02;;;8.00;98.50;;;;;;5070141;28;20033;-57
2023/11/26 12:49:19;;;;;;;70.60;21.60;;;8.00;98.50;;;;;;5079700;28;20032;-59
2023/11/26 12:51:45;;;;;;;14.20;6.32;;;8.20;97.50;;;;;;5044714;28;20051;-58
2023/11/26 12:54:12;;;;;;;15.68;5.25;;;;;;;;;;5052293;28;20044;-55
2023/11/26 12:56:39;;;;;;;11.35;4.22;;;;;;;;;;5047037;28;20040;-57
2023/11/26 12:59:06;;;;;;;20.50;8.90;;;;;;;;;;5048540;28;20443;-55
2023/11/26 13:01:35;;;;;;;26.33;11.13;;;;;;;;;;5045209;28;20194;-56
2023/11/26 13:04:05;;;;;;;4.63;3.03;;;;;;;;;;5045542;28;20054;-55
2023/11/26 13:06:35;;;;;;;7.80;5.10;;;;;;;;;;5049524;28;20057;-56
2023/11/26 13:09:09;;;;;;;31.10;13.68;;;8.10;99.90;;;;;;5042517;28;20041;-54
2023/11/26 13:11:38;;;;;;;13.70;5.47;;;7.50;96.70;;;;;;5047851;28;20182;-56
2023/11/26 13:14:06;;;;;;;6.10;3.40;;;7.40;96.80;;;;;;5051339;28;20150;-55
2023/11/26 13:16:33;;;;;;;14.90;7.85;;;7.50;97.20;;;;;;5052150;28;20041;-56
2023/11/26 13:18:59;;;;;;;5.75;2.88;;;;;;;;;;5044768;28;20113;-55